sensor_id;sensor_type;location;lat;lon;timestamp;temperature;humidity
28548;DHT22;68292;49.600;8.746;2023-03-20T00:02:24;17.10;50.30
28548;DHT22;68292;49.600;8.746;2023-03-20T00:04:53;17.10;50.20
28548;DHT22;68292;49.600;8.746;2023-03-20T00:07:22;17.10;50.10
28548;DHT22;68292;49.600;8.746;2023-03-20T00:09:51;17.00;50.00
28548;DHT22;68292;49.600;8.746;2023-03-20T00:12:23;17.00;50.00
28548;DHT22;68292;49.600;8.746;2023-03-20T00:14:54;17.00;50.00
28548;DHT22;68292;49.600;8.746;2023-03-20T00:17:23;17.00;50.00
28548;DHT22;68292;49.600;8.746;2023-03-20T00:19:51;16.90;50.10
28548;DHT22;68292;49.600;8.746;2023-03-20T00:22:20;16.90;50.20
28548;DHT22;68292;49.600;8.746;2023-03-20T00:24:49;16.90;50.30
28548;DHT22;68292;49.600;8.746;2023-03-20T00:27:18;16.90;50.40
28548;DHT22;68292;49.600;8.746;2023-03-20T00:29:48;16.90;50.40
28548;DHT22;68292;49.600;8.746;2023-03-20T00:32:17;16.90;50.50
28548;DHT22;68292;49.600;8.746;2023-03-20T00:34:47;16.80;50.40
28548;DHT22;68292;49.600;8.746;2023-03-20T00:37:16;16.80;50.40
28548;DHT22;68292;49.600;8.746;2023-03-20T00:39:45;16.80;50.40
28548;DHT22;68292;49.600;8.746;2023-03-20T00:42:19;16.80;50.40
28548;DHT22;68292;49.600;8.746;2023-03-20T00:44:52;16.80;50.60
28548;DHT22;68292;49.600;8.746;2023-03-20T00:47:25;16.80;50.60
28548;DHT22;68292;49.600;8.746;2023-03-20T00:49:54;16.80;50.60
28548;DHT22;68292;49.600;8.746;2023-03-20T00:52:25;16.80;50.50
28548;DHT22;68292;49.600;8.746;2023-03-20T00:54:54;16.80;50.40
28548;DHT22;68292;49.600;8.746;2023-03-20T00:57:25;16.80;50.40
28548;DHT22;68292;49.600;8.746;2023-03-20T00:59:58;16.80;50.40
28548;DHT22;68292;49.600;8.746;2023-03-20T01:02:30;16.80;50.40
28548;DHT22;68292;49.600;8.746;2023-03-20T01:05:00;16.80;50.30
28548;DHT22;68292;49.600;8.746;2023-03-20T01:07:29;16.80;50.40
28548;DHT22;68292;49.600;8.746;2023-03-20T01:09:58;16.80;50.40
28548;DHT22;68292;49.600;8.746;2023-03-20T01:12:27;16.80;50.40
28548;DHT22;68292;49.600;8.746;2023-03-20T01:14:58;16.80;50.40
28548;DHT22;68292;49.600;8.746;2023-03-20T01:17:27;16.70;50.50
28548;DHT22;68292;49.600;8.746;2023-03-20T01:19:57;16.70;50.50
28548;DHT22;68292;49.600;8.746;2023-03-20T01:22:25;16.80;50.60
28548;DHT22;68292;49.600;8.746;2023-03-20T01:24:54;16.70;50.60
28548;DHT22;68292;49.600;8.746;2023-03-20T01:27:23;16.70;50.70
28548;DHT22;68292;49.600;8.746;2023-03-20T01:29:52;16.70;50.70
28548;DHT22;68292;49.600;8.746;2023-03-20T01:32:22;16.70;50.80
28548;DHT22;68292;49.600;8.746;2023-03-20T01:34:51;16.70;50.90
28548;DHT22;68292;49.600;8.746;2023-03-20T01:37:23;16.70;50.90
28548;DHT22;68292;49.600;8.746;2023-03-20T01:39:56;16.70;50.90
28548;DHT22;68292;49.600;8.746;2023-03-20T01:42:25;16.70;50.80
28548;DHT22;68292;49.600;8.746;2023-03-20T01:44:54;16.70;50.70
28548;DHT22;68292;49.600;8.746;2023-03-20T01:47:25;16.70;50.60
28548;DHT22;68292;49.600;8.746;2023-03-20T01:50:20;16.70;50.60
28548;DHT22;68292;49.600;8.746;2023-03-20T01:53:15;16.70;51.20
28548;DHT22;68292;49.600;8.746;2023-03-20T01:55:54;16.70;50.40
28548;DHT22;68292;49.600;8.746;2023-03-20T01:58:33;16.70;50.40
28548;DHT22;68292;49.600;8.746;2023-03-20T02:01:07;16.70;50.40
28548;DHT22;68292;49.600;8.746;2023-03-20T02:03:43;16.70;50.40
28548;DHT22;68292;49.600;8.746;2023-03-20T02:06:32;16.70;51.10
28548;DHT22;68292;49.600;8.746;2023-03-20T02:09:24;16.70;50.40
28548;DHT22;68292;49.600;8.746;2023-03-20T02:11:53;16.70;50.50
28548;DHT22;68292;49.600;8.746;2023-03-20T02:14:28;16.70;50.50
28548;DHT22;68292;49.600;8.746;2023-03-20T02:17:30;16.70;50.60
28548;DHT22;68292;49.600;8.746;2023-03-20T02:20:13;16.70;50.60
28548;DHT22;68292;49.600;8.746;2023-03-20T02:23:35;16.70;50.70
28548;DHT22;68292;49.600;8.746;2023-03-20T02:26:41;16.70;50.70
28548;DHT22;68292;49.600;8.746;2023-03-20T02:33:16;16.70;50.80
28548;DHT22;68292;49.600;8.746;2023-03-20T02:39:30;16.70;50.80
28548;DHT22;68292;49.600;8.746;2023-03-20T02:42:12;16.70;50.90
28548;DHT22;68292;49.600;8.746;2023-03-20T02:44:49;16.70;50.90
28548;DHT22;68292;49.600;8.746;2023-03-20T02:47:26;16.70;50.90
28548;DHT22;68292;49.600;8.746;2023-03-20T02:50:12;16.70;51.00
28548;DHT22;68292;49.600;8.746;2023-03-20T02:52:47;16.70;51.10
28548;DHT22;68292;49.600;8.746;2023-03-20T02:55:28;16.70;51.10
28548;DHT22;68292;49.600;8.746;2023-03-20T02:58:08;16.70;51.20
28548;DHT22;68292;49.600;8.746;2023-03-20T03:00:44;16.70;51.10
28548;DHT22;68292;49.600;8.746;2023-03-20T03:03:18;16.70;51.10
28548;DHT22;68292;49.600;8.746;2023-03-20T03:05:53;16.70;51.00
28548;DHT22;68292;49.600;8.746;2023-03-20T03:08:26;16.70;51.10
28548;DHT22;68292;49.600;8.746;2023-03-20T03:11:03;16.70;51.10
28548;DHT22;68292;49.600;8.746;2023-03-20T03:13:36;16.70;51.10
28548;DHT22;68292;49.600;8.746;2023-03-20T03:16:09;16.70;51.10
28548;DHT22;68292;49.600;8.746;2023-03-20T03:18:41;16.70;51.10
28548;DHT22;68292;49.600;8.746;2023-03-20T03:21:12;16.70;51.10
28548;DHT22;68292;49.600;8.746;2023-03-20T03:23:45;16.70;51.10
28548;DHT22;68292;49.600;8.746;2023-03-20T03:26:21;16.70;51.10
28548;DHT22;68292;49.600;8.746;2023-03-20T03:28:56;16.70;51.20
28548;DHT22;68292;49.600;8.746;2023-03-20T03:31:28;16.70;51.10
28548;DHT22;68292;49.600;8.746;2023-03-20T03:33:59;16.70;51.10
28548;DHT22;68292;49.600;8.746;2023-03-20T03:36:36;16.70;51.20
28548;DHT22;68292;49.600;8.746;2023-03-20T03:39:15;16.70;51.20
28548;DHT22;68292;49.600;8.746;2023-03-20T03:41:49;16.70;51.20
28548;DHT22;68292;49.600;8.746;2023-03-20T03:44:25;16.70;51.20
28548;DHT22;68292;49.600;8.746;2023-03-20T03:47:00;16.70;51.30
28548;DHT22;68292;49.600;8.746;2023-03-20T03:49:34;16.80;51.30
28548;DHT22;68292;49.600;8.746;2023-03-20T03:52:08;16.70;51.40
28548;DHT22;68292;49.600;8.746;2023-03-20T03:54:41;16.70;51.50
28548;DHT22;68292;49.600;8.746;2023-03-20T03:57:35;16.80;51.50
28548;DHT22;68292;49.600;8.746;2023-03-20T04:00:10;16.80;51.50
28548;DHT22;68292;49.600;8.746;2023-03-20T04:02:44;16.80;51.60
28548;DHT22;68292;49.600;8.746;2023-03-20T04:05:17;16.80;51.60
28548;DHT22;68292;49.600;8.746;2023-03-20T04:07:51;16.80;51.60
28548;DHT22;68292;49.600;8.746;2023-03-20T04:10:22;16.80;51.70
28548;DHT22;68292;49.600;8.746;2023-03-20T04:12:52;16.80;51.70
28548;DHT22;68292;49.600;8.746;2023-03-20T04:15:21;16.80;51.80
28548;DHT22;68292;49.600;8.746;2023-03-20T04:17:50;16.80;51.80
28548;DHT22;68292;49.600;8.746;2023-03-20T04:20:19;16.80;51.90
28548;DHT22;68292;49.600;8.746;2023-03-20T04:22:48;16.80;52.00
28548;DHT22;68292;49.600;8.746;2023-03-20T04:25:19;16.80;52.00
28548;DHT22;68292;49.600;8.746;2023-03-20T04:27:53;16.80;52.10
28548;DHT22;68292;49.600;8.746;2023-03-20T04:30:52;16.80;52.10
28548;DHT22;68292;49.600;8.746;2023-03-20T04:33:42;16.80;52.10
28548;DHT22;68292;49.600;8.746;2023-03-20T04:36:21;16.90;52.00
28548;DHT22;68292;49.600;8.746;2023-03-20T04:38:51;16.90;52.10
28548;DHT22;68292;49.600;8.746;2023-03-20T04:41:24;16.90;52.10
28548;DHT22;68292;49.600;8.746;2023-03-20T04:43:57;16.90;52.20
28548;DHT22;68292;49.600;8.746;2023-03-20T04:46:25;16.80;52.30
28548;DHT22;68292;49.600;8.746;2023-03-20T04:48:54;16.90;52.30
28548;DHT22;68292;49.600;8.746;2023-03-20T04:51:27;16.90;52.40
28548;DHT22;68292;49.600;8.746;2023-03-20T04:53:57;16.90;52.40
28548;DHT22;68292;49.600;8.746;2023-03-20T04:56:25;16.90;52.50
28548;DHT22;68292;49.600;8.746;2023-03-20T04:59:08;16.90;52.60
28548;DHT22;68292;49.600;8.746;2023-03-20T05:01:38;16.90;52.70
28548;DHT22;68292;49.600;8.746;2023-03-20T05:04:07;16.90;52.70
28548;DHT22;68292;49.600;8.746;2023-03-20T05:06:36;16.90;52.70
28548;DHT22;68292;49.600;8.746;2023-03-20T05:09:05;16.90;52.70
28548;DHT22;68292;49.600;8.746;2023-03-20T05:11:35;16.90;52.70
28548;DHT22;68292;49.600;8.746;2023-03-20T05:14:04;17.00;52.70
28548;DHT22;68292;49.600;8.746;2023-03-20T05:16:53;17.00;52.70
28548;DHT22;68292;49.600;8.746;2023-03-20T05:20:00;17.00;52.60
28548;DHT22;68292;49.600;8.746;2023-03-20T05:22:43;17.00;52.40
28548;DHT22;68292;49.600;8.746;2023-03-20T05:25:26;17.00;52.50
28548;DHT22;68292;49.600;8.746;2023-03-20T05:28:08;17.00;52.50
28548;DHT22;68292;49.600;8.746;2023-03-20T05:31:09;17.00;52.50
28548;DHT22;68292;49.600;8.746;2023-03-20T05:34:11;17.00;52.40
28548;DHT22;68292;49.600;8.746;2023-03-20T05:36:58;17.00;52.30
28548;DHT22;68292;49.600;8.746;2023-03-20T05:39:56;17.00;52.30
28548;DHT22;68292;49.600;8.746;2023-03-20T05:42:51;17.00;52.30
28548;DHT22;68292;49.600;8.746;2023-03-20T05:45:20;17.00;52.30
28548;DHT22;68292;49.600;8.746;2023-03-20T05:48:08;17.00;52.40
28548;DHT22;68292;49.600;8.746;2023-03-20T05:50:38;17.00;52.50
28548;DHT22;68292;49.600;8.746;2023-03-20T05:53:25;17.00;52.70
28548;DHT22;68292;49.600;8.746;2023-03-20T05:56:19;17.00;53.40
28548;DHT22;68292;49.600;8.746;2023-03-20T05:59:07;17.00;52.80
28548;DHT22;68292;49.600;8.746;2023-03-20T06:02:09;17.00;52.90
28548;DHT22;68292;49.600;8.746;2023-03-20T06:04:45;17.00;52.90
28548;DHT22;68292;49.600;8.746;2023-03-20T06:07:21;17.00;53.00
28548;DHT22;68292;49.600;8.746;2023-03-20T06:10:04;17.00;53.20
28548;DHT22;68292;49.600;8.746;2023-03-20T06:12:33;17.00;53.10
28548;DHT22;68292;49.600;8.746;2023-03-20T06:15:04;17.00;53.20
28548;DHT22;68292;49.600;8.746;2023-03-20T06:17:38;17.00;53.30
28548;DHT22;68292;49.600;8.746;2023-03-20T06:20:08;17.00;53.30
28548;DHT22;68292;49.600;8.746;2023-03-20T06:22:39;17.10;53.40
28548;DHT22;68292;49.600;8.746;2023-03-20T06:25:09;17.10;53.40
28548;DHT22;68292;49.600;8.746;2023-03-20T06:27:41;17.10;53.30
28548;DHT22;68292;49.600;8.746;2023-03-20T06:30:11;17.10;53.30
28548;DHT22;68292;49.600;8.746;2023-03-20T06:32:41;17.10;53.40
28548;DHT22;68292;49.600;8.746;2023-03-20T06:35:12;17.10;53.40
28548;DHT22;68292;49.600;8.746;2023-03-20T06:37:45;17.10;53.40
28548;DHT22;68292;49.600;8.746;2023-03-20T06:40:20;17.10;53.50
28548;DHT22;68292;49.600;8.746;2023-03-20T06:42:49;17.10;53.50
28548;DHT22;68292;49.600;8.746;2023-03-20T06:45:18;17.20;53.60
28548;DHT22;68292;49.600;8.746;2023-03-20T06:47:53;17.10;53.60
28548;DHT22;68292;49.600;8.746;2023-03-20T06:50:22;17.10;53.60
28548;DHT22;68292;49.600;8.746;2023-03-20T06:52:53;17.20;53.70
28548;DHT22;68292;49.600;8.746;2023-03-20T06:55:36;17.20;53.80
28548;DHT22;68292;49.600;8.746;2023-03-20T06:58:05;17.20;53.80
28548;DHT22;68292;49.600;8.746;2023-03-20T07:00:35;17.20;53.80
28548;DHT22;68292;49.600;8.746;2023-03-20T07:03:07;17.20;53.80
28548;DHT22;68292;49.600;8.746;2023-03-20T07:05:36;17.20;53.80
28548;DHT22;68292;49.600;8.746;2023-03-20T07:08:10;17.20;53.80
28548;DHT22;68292;49.600;8.746;2023-03-20T07:10:38;17.20;54.00
28548;DHT22;68292;49.600;8.746;2023-03-20T07:13:07;17.30;54.00
28548;DHT22;68292;49.600;8.746;2023-03-20T07:15:39;17.30;54.00
28548;DHT22;68292;49.600;8.746;2023-03-20T07:18:28;17.30;54.00
28548;DHT22;68292;49.600;8.746;2023-03-20T07:20:59;17.30;53.90
28548;DHT22;68292;49.600;8.746;2023-03-20T07:23:31;17.30;54.10
28548;DHT22;68292;49.600;8.746;2023-03-20T07:26:02;17.20;54.10
28548;DHT22;68292;49.600;8.746;2023-03-20T07:28:32;17.30;54.00
28548;DHT22;68292;49.600;8.746;2023-03-20T07:31:18;17.30;54.00
28548;DHT22;68292;49.600;8.746;2023-03-20T07:33:53;17.30;54.20
28548;DHT22;68292;49.600;8.746;2023-03-20T07:36:21;17.30;54.00
28548;DHT22;68292;49.600;8.746;2023-03-20T07:38:51;17.30;54.00
28548;DHT22;68292;49.600;8.746;2023-03-20T07:41:20;17.30;54.20
28548;DHT22;68292;49.600;8.746;2023-03-20T07:44:00;17.30;54.10
28548;DHT22;68292;49.600;8.746;2023-03-20T07:46:38;17.30;54.10
28548;DHT22;68292;49.600;8.746;2023-03-20T07:49:08;17.30;54.10
28548;DHT22;68292;49.600;8.746;2023-03-20T07:51:37;17.30;54.20
28548;DHT22;68292;49.600;8.746;2023-03-20T07:54:07;17.30;54.30
28548;DHT22;68292;49.600;8.746;2023-03-20T07:56:36;17.30;54.40
28548;DHT22;68292;49.600;8.746;2023-03-20T07:59:05;17.30;54.30
28548;DHT22;68292;49.600;8.746;2023-03-20T08:01:33;17.40;54.40
28548;DHT22;68292;49.600;8.746;2023-03-20T08:04:02;17.30;54.40
28548;DHT22;68292;49.600;8.746;2023-03-20T08:06:32;17.40;54.50
28548;DHT22;68292;49.600;8.746;2023-03-20T08:09:00;17.40;54.50
28548;DHT22;68292;49.600;8.746;2023-03-20T08:11:31;17.30;54.50
28548;DHT22;68292;49.600;8.746;2023-03-20T08:14:00;17.40;54.70
28548;DHT22;68292;49.600;8.746;2023-03-20T08:16:29;17.40;54.70
28548;DHT22;68292;49.600;8.746;2023-03-20T08:18:58;17.40;54.70
28548;DHT22;68292;49.600;8.746;2023-03-20T08:21:28;17.40;54.70
28548;DHT22;68292;49.600;8.746;2023-03-20T08:23:57;17.40;54.70
28548;DHT22;68292;49.600;8.746;2023-03-20T08:26:26;17.40;54.70
28548;DHT22;68292;49.600;8.746;2023-03-20T08:28:56;17.40;54.70
28548;DHT22;68292;49.600;8.746;2023-03-20T08:31:25;17.40;54.80
28548;DHT22;68292;49.600;8.746;2023-03-20T08:33:54;17.40;54.80
28548;DHT22;68292;49.600;8.746;2023-03-20T08:36:23;17.40;54.80
28548;DHT22;68292;49.600;8.746;2023-03-20T08:38:52;17.40;54.80
28548;DHT22;68292;49.600;8.746;2023-03-20T08:41:22;17.40;54.80
28548;DHT22;68292;49.600;8.746;2023-03-20T08:43:50;17.50;54.90
28548;DHT22;68292;49.600;8.746;2023-03-20T08:46:20;17.50;55.00
28548;DHT22;68292;49.600;8.746;2023-03-20T08:48:49;17.40;55.00
28548;DHT22;68292;49.600;8.746;2023-03-20T08:51:18;17.40;55.00
28548;DHT22;68292;49.600;8.746;2023-03-20T08:53:47;17.50;55.10
28548;DHT22;68292;49.600;8.746;2023-03-20T08:56:16;17.50;55.20
28548;DHT22;68292;49.600;8.746;2023-03-20T08:58:44;17.50;55.20
28548;DHT22;68292;49.600;8.746;2023-03-20T09:01:13;17.50;55.20
28548;DHT22;68292;49.600;8.746;2023-03-20T09:03:43;17.50;55.30
28548;DHT22;68292;49.600;8.746;2023-03-20T09:06:12;17.50;55.40
28548;DHT22;68292;49.600;8.746;2023-03-20T09:08:41;17.50;55.30
28548;DHT22;68292;49.600;8.746;2023-03-20T09:11:10;17.50;55.30
28548;DHT22;68292;49.600;8.746;2023-03-20T09:13:39;17.50;55.30
28548;DHT22;68292;49.600;8.746;2023-03-20T09:16:08;17.50;55.30
28548;DHT22;68292;49.600;8.746;2023-03-20T09:18:40;17.50;55.30
28548;DHT22;68292;49.600;8.746;2023-03-20T09:21:11;17.50;55.20
28548;DHT22;68292;49.600;8.746;2023-03-20T09:23:39;17.50;55.20
28548;DHT22;68292;49.600;8.746;2023-03-20T09:26:08;17.50;55.20
28548;DHT22;68292;49.600;8.746;2023-03-20T09:28:37;17.50;55.20
28548;DHT22;68292;49.600;8.746;2023-03-20T09:31:05;17.50;55.20
28548;DHT22;68292;49.600;8.746;2023-03-20T09:33:34;17.50;55.30
28548;DHT22;68292;49.600;8.746;2023-03-20T09:36:05;17.50;55.40
28548;DHT22;68292;49.600;8.746;2023-03-20T09:38:37;17.50;55.60
28548;DHT22;68292;49.600;8.746;2023-03-20T09:41:14;17.50;55.40
28548;DHT22;68292;49.600;8.746;2023-03-20T09:43:54;17.50;55.80
28548;DHT22;68292;49.600;8.746;2023-03-20T09:46:36;17.50;55.80
28548;DHT22;68292;49.600;8.746;2023-03-20T09:49:25;17.50;55.70
28548;DHT22;68292;49.600;8.746;2023-03-20T09:52:03;17.50;55.90
28548;DHT22;68292;49.600;8.746;2023-03-20T09:54:37;17.50;55.70
28548;DHT22;68292;49.600;8.746;2023-03-20T09:57:23;17.50;55.70
28548;DHT22;68292;49.600;8.746;2023-03-20T09:59:56;17.50;55.80
28548;DHT22;68292;49.600;8.746;2023-03-20T10:02:36;17.50;56.00
28548;DHT22;68292;49.600;8.746;2023-03-20T10:05:16;17.50;56.60
28548;DHT22;68292;49.600;8.746;2023-03-20T10:07:50;17.60;56.80
28548;DHT22;68292;49.600;8.746;2023-03-20T10:10:21;17.60;57.30
28548;DHT22;68292;49.600;8.746;2023-03-20T10:13:05;17.60;56.60
28548;DHT22;68292;49.600;8.746;2023-03-20T10:15:45;17.60;56.90
28548;DHT22;68292;49.600;8.746;2023-03-20T10:18:22;17.60;56.90
28548;DHT22;68292;49.600;8.746;2023-03-20T10:20:55;17.70;57.00
28548;DHT22;68292;49.600;8.746;2023-03-20T10:23:33;17.70;57.00
28548;DHT22;68292;49.600;8.746;2023-03-20T10:26:07;17.70;57.40
28548;DHT22;68292;49.600;8.746;2023-03-20T10:28:44;17.80;57.20
28548;DHT22;68292;49.600;8.746;2023-03-20T10:31:25;17.80;57.10
28548;DHT22;68292;49.600;8.746;2023-03-20T10:34:07;17.80;57.20
28548;DHT22;68292;49.600;8.746;2023-03-20T10:36:59;17.90;57.70
28548;DHT22;68292;49.600;8.746;2023-03-20T10:39:48;17.90;57.00
28548;DHT22;68292;49.600;8.746;2023-03-20T10:42:26;18.00;56.80
28548;DHT22;68292;49.600;8.746;2023-03-20T10:45:00;18.00;56.50
28548;DHT22;68292;49.600;8.746;2023-03-20T10:47:34;18.00;56.30
28548;DHT22;68292;49.600;8.746;2023-03-20T10:50:06;18.00;56.50
28548;DHT22;68292;49.600;8.746;2023-03-20T10:52:39;18.00;56.30
28548;DHT22;68292;49.600;8.746;2023-03-20T10:55:15;18.00;56.40
28548;DHT22;68292;49.600;8.746;2023-03-20T10:57:48;18.00;56.70
28548;DHT22;68292;49.600;8.746;2023-03-20T11:00:22;18.10;56.40
28548;DHT22;68292;49.600;8.746;2023-03-20T11:02:52;18.10;56.40
28548;DHT22;68292;49.600;8.746;2023-03-20T11:05:24;18.10;56.20
28548;DHT22;68292;49.600;8.746;2023-03-20T11:08:01;18.10;56.30
28548;DHT22;68292;49.600;8.746;2023-03-20T11:10:35;18.10;56.40
28548;DHT22;68292;49.600;8.746;2023-03-20T11:13:14;18.10;56.30
28548;DHT22;68292;49.600;8.746;2023-03-20T11:15:45;18.10;56.80
28548;DHT22;68292;49.600;8.746;2023-03-20T11:18:14;18.10;56.30
28548;DHT22;68292;49.600;8.746;2023-03-20T11:20:45;18.10;56.30
28548;DHT22;68292;49.600;8.746;2023-03-20T11:23:16;18.10;56.20
28548;DHT22;68292;49.600;8.746;2023-03-20T11:25:51;18.10;56.20
28548;DHT22;68292;49.600;8.746;2023-03-20T11:28:31;18.10;56.20
28548;DHT22;68292;49.600;8.746;2023-03-20T11:31:04;18.10;56.10
28548;DHT22;68292;49.600;8.746;2023-03-20T11:33:36;18.10;56.00
28548;DHT22;68292;49.600;8.746;2023-03-20T11:36:18;18.10;56.00
28548;DHT22;68292;49.600;8.746;2023-03-20T11:38:51;18.10;56.00
28548;DHT22;68292;49.600;8.746;2023-03-20T11:41:25;18.10;55.90
28548;DHT22;68292;49.600;8.746;2023-03-20T11:43:55;18.10;55.90
28548;DHT22;68292;49.600;8.746;2023-03-20T11:46:24;18.10;55.80
28548;DHT22;68292;49.600;8.746;2023-03-20T11:49:09;18.10;55.90
28548;DHT22;68292;49.600;8.746;2023-03-20T11:51:47;18.10;56.20
28548;DHT22;68292;49.600;8.746;2023-03-20T11:54:18;18.10;55.90
28548;DHT22;68292;49.600;8.746;2023-03-20T11:56:54;18.10;56.30
28548;DHT22;68292;49.600;8.746;2023-03-20T11:59:28;18.10;56.60
28548;DHT22;68292;49.600;8.746;2023-03-20T12:02:00;18.10;56.60
28548;DHT22;68292;49.600;8.746;2023-03-20T12:04:31;18.10;56.40
28548;DHT22;68292;49.600;8.746;2023-03-20T12:07:05;18.10;56.50
28548;DHT22;68292;49.600;8.746;2023-03-20T12:09:41;18.20;56.70
28548;DHT22;68292;49.600;8.746;2023-03-20T12:12:22;18.20;56.60
28548;DHT22;68292;49.600;8.746;2023-03-20T12:15:07;18.20;56.60
28548;DHT22;68292;49.600;8.746;2023-03-20T12:17:45;18.30;56.30
28548;DHT22;68292;49.600;8.746;2023-03-20T12:20:23;18.30;56.10
28548;DHT22;68292;49.600;8.746;2023-03-20T12:23:01;18.30;56.30
28548;DHT22;68292;49.600;8.746;2023-03-20T12:25:37;18.40;56.30
28548;DHT22;68292;49.600;8.746;2023-03-20T12:28:16;18.40;56.00
28548;DHT22;68292;49.600;8.746;2023-03-20T12:31:03;18.40;56.00
28548;DHT22;68292;49.600;8.746;2023-03-20T12:33:41;18.40;56.00
28548;DHT22;68292;49.600;8.746;2023-03-20T12:36:14;18.50;56.00
28548;DHT22;68292;49.600;8.746;2023-03-20T12:38:44;18.50;55.80
28548;DHT22;68292;49.600;8.746;2023-03-20T12:41:18;18.50;55.80
28548;DHT22;68292;49.600;8.746;2023-03-20T12:44:14;18.50;55.60
28548;DHT22;68292;49.600;8.746;2023-03-20T12:46:53;18.60;55.60
28548;DHT22;68292;49.600;8.746;2023-03-20T12:49:31;18.60;55.20
28548;DHT22;68292;49.600;8.746;2023-03-20T12:52:12;18.60;55.10
28548;DHT22;68292;49.600;8.746;2023-03-20T12:55:09;18.60;55.10
28548;DHT22;68292;49.600;8.746;2023-03-20T12:57:50;18.60;55.20
28548;DHT22;68292;49.600;8.746;2023-03-20T13:00:30;18.60;54.70
28548;DHT22;68292;49.600;8.746;2023-03-20T13:03:10;18.70;54.60
28548;DHT22;68292;49.600;8.746;2023-03-20T13:05:53;18.70;54.50
28548;DHT22;68292;49.600;8.746;2023-03-20T13:08:41;18.70;54.50
28548;DHT22;68292;49.600;8.746;2023-03-20T13:11:23;18.70;54.50
28548;DHT22;68292;49.600;8.746;2023-03-20T13:13:57;18.70;54.30
28548;DHT22;68292;49.600;8.746;2023-03-20T13:16:37;18.70;54.40
28548;DHT22;68292;49.600;8.746;2023-03-20T13:19:18;18.70;54.20
28548;DHT22;68292;49.600;8.746;2023-03-20T13:21:55;18.70;54.50
28548;DHT22;68292;49.600;8.746;2023-03-20T13:24:35;18.70;54.50
28548;DHT22;68292;49.600;8.746;2023-03-20T13:27:21;18.70;54.50
28548;DHT22;68292;49.600;8.746;2023-03-20T13:29:59;18.70;54.30
28548;DHT22;68292;49.600;8.746;2023-03-20T13:32:41;18.70;54.30
28548;DHT22;68292;49.600;8.746;2023-03-20T13:35:24;18.70;54.00
28548;DHT22;68292;49.600;8.746;2023-03-20T13:38:00;18.70;54.40
28548;DHT22;68292;49.600;8.746;2023-03-20T13:40:33;18.70;53.90
28548;DHT22;68292;49.600;8.746;2023-03-20T13:43:12;18.70;53.80
28548;DHT22;68292;49.600;8.746;2023-03-20T13:45:50;18.70;53.60
28548;DHT22;68292;49.600;8.746;2023-03-20T13:48:28;18.70;53.60
28548;DHT22;68292;49.600;8.746;2023-03-20T13:51:07;18.70;53.60
28548;DHT22;68292;49.600;8.746;2023-03-20T13:53:56;18.70;53.60
28548;DHT22;68292;49.600;8.746;2023-03-20T13:56:39;18.70;53.50
28548;DHT22;68292;49.600;8.746;2023-03-20T13:59:36;18.70;53.60
28548;DHT22;68292;49.600;8.746;2023-03-20T14:02:32;18.70;53.30
28548;DHT22;68292;49.600;8.746;2023-03-20T14:05:11;18.70;53.10
28548;DHT22;68292;49.600;8.746;2023-03-20T14:07:45;18.80;53.00
28548;DHT22;68292;49.600;8.746;2023-03-20T14:10:37;18.70;53.40
28548;DHT22;68292;49.600;8.746;2023-03-20T14:13:13;18.70;53.10
28548;DHT22;68292;49.600;8.746;2023-03-20T14:15:51;18.70;53.00
28548;DHT22;68292;49.600;8.746;2023-03-20T14:18:23;18.70;53.10
28548;DHT22;68292;49.600;8.746;2023-03-20T14:20:56;18.70;52.90
28548;DHT22;68292;49.600;8.746;2023-03-20T14:23:33;18.70;52.70
28548;DHT22;68292;49.600;8.746;2023-03-20T14:26:16;18.70;52.10
28548;DHT22;68292;49.600;8.746;2023-03-20T14:28:59;18.70;52.10
28548;DHT22;68292;49.600;8.746;2023-03-20T14:31:30;18.70;52.10
28548;DHT22;68292;49.600;8.746;2023-03-20T14:34:15;18.70;52.30
28548;DHT22;68292;49.600;8.746;2023-03-20T14:36:54;18.70;52.10
28548;DHT22;68292;49.600;8.746;2023-03-20T14:39:42;18.70;51.80
28548;DHT22;68292;49.600;8.746;2023-03-20T14:42:23;18.70;51.80
28548;DHT22;68292;49.600;8.746;2023-03-20T14:45:28;18.70;52.20
28548;DHT22;68292;49.600;8.746;2023-03-20T14:48:03;18.70;51.90
28548;DHT22;68292;49.600;8.746;2023-03-20T14:50:39;18.70;52.00
28548;DHT22;68292;49.600;8.746;2023-03-20T14:53:20;18.70;51.80
28548;DHT22;68292;49.600;8.746;2023-03-20T14:55:51;18.70;51.80
28548;DHT22;68292;49.600;8.746;2023-03-20T14:58:47;18.70;51.90
28548;DHT22;68292;49.600;8.746;2023-03-20T15:01:24;18.70;51.60
28548;DHT22;68292;49.600;8.746;2023-03-20T15:04:13;18.70;51.40
28548;DHT22;68292;49.600;8.746;2023-03-20T15:06:53;18.70;51.50
28548;DHT22;68292;49.600;8.746;2023-03-20T15:09:28;18.70;51.30
28548;DHT22;68292;49.600;8.746;2023-03-20T15:11:59;18.70;51.40
28548;DHT22;68292;49.600;8.746;2023-03-20T15:14:39;18.70;51.60
28548;DHT22;68292;49.600;8.746;2023-03-20T15:17:21;18.70;51.00
28548;DHT22;68292;49.600;8.746;2023-03-20T15:20:09;18.70;51.10
28548;DHT22;68292;49.600;8.746;2023-03-20T15:22:47;18.70;51.00
28548;DHT22;68292;49.600;8.746;2023-03-20T15:25:19;18.70;51.10
28548;DHT22;68292;49.600;8.746;2023-03-20T15:27:49;18.70;51.30
28548;DHT22;68292;49.600;8.746;2023-03-20T15:30:21;18.80;51.40
28548;DHT22;68292;49.600;8.746;2023-03-20T15:32:53;18.80;51.30
28548;DHT22;68292;49.600;8.746;2023-03-20T15:35:25;18.80;51.20
28548;DHT22;68292;49.600;8.746;2023-03-20T15:37:56;18.80;51.20
28548;DHT22;68292;49.600;8.746;2023-03-20T15:40:28;18.80;51.30
28548;DHT22;68292;49.600;8.746;2023-03-20T15:43:18;18.80;51.30
28548;DHT22;68292;49.600;8.746;2023-03-20T15:45:48;18.80;51.10
28548;DHT22;68292;49.600;8.746;2023-03-20T15:48:32;18.80;51.30
28548;DHT22;68292;49.600;8.746;2023-03-20T15:51:03;18.80;51.10
28548;DHT22;68292;49.600;8.746;2023-03-20T15:53:35;18.80;50.90
28548;DHT22;68292;49.600;8.746;2023-03-20T15:56:09;18.90;50.80
28548;DHT22;68292;49.600;8.746;2023-03-20T15:58:46;18.90;50.50
28548;DHT22;68292;49.600;8.746;2023-03-20T16:01:19;18.90;50.70
28548;DHT22;68292;49.600;8.746;2023-03-20T16:03:49;18.90;50.50
28548;DHT22;68292;49.600;8.746;2023-03-20T16:06:19;18.90;50.30
28548;DHT22;68292;49.600;8.746;2023-03-20T16:08:58;18.80;50.30
28548;DHT22;68292;49.600;8.746;2023-03-20T16:11:38;18.90;49.80
28548;DHT22;68292;49.600;8.746;2023-03-20T16:14:12;18.90;49.70
28548;DHT22;68292;49.600;8.746;2023-03-20T16:16:46;18.80;49.80
28548;DHT22;68292;49.600;8.746;2023-03-20T16:19:17;18.80;49.80
28548;DHT22;68292;49.600;8.746;2023-03-20T16:21:49;18.80;49.90
28548;DHT22;68292;49.600;8.746;2023-03-20T16:24:24;18.80;50.30
28548;DHT22;68292;49.600;8.746;2023-03-20T16:26:57;18.80;49.40
28548;DHT22;68292;49.600;8.746;2023-03-20T16:29:27;18.80;49.40
28548;DHT22;68292;49.600;8.746;2023-03-20T16:32:00;18.80;49.30